Bei Facebook empfehlenBei Twitter postenGoogle plusPinterest

Das Wetter im Erzgebirge am 20.05.2017

Wetter und Klima am 20.05.2017 Holzhau im Erzgebirge (630m ü.NN)
Letzte gemessene Temperatur und Uhrzeit der Messung23:45:00 Uhr9.40 °C
Temperatur (Maximum / Höchstwert) und Uhrzeit der Messung15:15:00 Uhr16.30 °C
Temperatur (Minimum / Tiefstwert) und Uhrzeit der Messung06:30:008.90 °C
Errechneter Absolutwert der Temperaturschwankungen zwischen Tmin und Tmax des Tages7.40 K
Errechnete Tagesmitteltemperatur11.99271 °C
Gesamt - Niederschlag des Tages (in flüssiger Form)0.00 Liter / m²
Luftdruck (Maximum / Höchstwert) und Zeitpunkt der Messung23:45:00 Uhr1019.70 hPa
Luftdruck (Minimum / Tiefstwert) und Zeitpunkt der Messung00:00:00 Uhr1010.10 hPa
Errechneter Absolutwert der Luftdruckschwankungen des Tages9.60 hPa
Höchste gemessene Windgeschwindigkeit und Uhrzeit der Messung08:30:00 Uhr50.40 km/h
Errechnete Windhäufigkeit in Relation zu den Messwerten des Tages50.00000 %
Niedrigste Windkühle (Windchill) und Zeitpunkt der Messung06:30:00 Uhr7.90 °C
Taupunkt (Maximum / Höchstwert) und Uhrzeit der Messung00:15:00 Uhr9.10 °C
Taupunkt (Minimum / Tiefstwert) und Uhrzeit der Messung23:45:005.80 °C
Anzahl der automatisch eingelesenen Messwerte 96

Detaillierte Wetter- und Klima- Messwerte für den 20.05.2017 in Holzhau im Erzgebirge (630m ü.NN)
ZeitTemperaturLuftdruckRel. LuftfeuchteWindWindrichtungWindchillTaupunktNiederschlag l/m²
23:45:009.40 °C1019.70 hPa78.00 %5.80 °C 
23:30:009.80 °C1019.60 hPa77.00 %6.00 °C 
23:15:0010.10 °C1019.50 hPa76.00 %6.10 °C 
23:00:0010.30 °C1019.40 hPa76.00 %6.30 °C 
22:45:0010.60 °C1019.40 hPa75.00 %6.40 °C 
22:30:0010.80 °C1019.30 hPa75.00 %6.60 °C 
22:15:0011.10 °C1019.30 hPa75.00 %6.80 °C 
22:00:0011.10 °C1019.40 hPa75.00 %6.80 °C 
21:45:0011.30 °C1019.30 hPa74.00 %6.80 °C 
21:30:0011.50 °C1019.10 hPa73.00 %6.80 °C 
21:15:0011.60 °C1018.70 hPa73.00 %6.90 °C 
21:00:0011.90 °C1018.80 hPa72.00 %7.00 °C 
20:45:0012.10 °C1018.50 hPa71.00 %7.00 °C 
20:30:0012.20 °C1018.40 hPa70.00 %6.90 °C 
20:15:0012.40 °C1018.40 hPa69.00 %6.90 °C 
20:00:0012.70 °C1018.30 hPa69.00 %7.20 °C 
19:45:0012.90 °C1018.00 hPa69.00 %7.40 °C 
19:30:0012.90 °C1017.90 hPa68.00 %7.10 °C 
19:15:0013.10 °C1017.70 hPa67.00 %7.10 °C 
19:00:0013.30 °C1017.70 hPa66.00 %7.10 °C 
18:45:0013.30 °C1017.60 hPa66.00 %7.10 °C 
18:30:0013.50 °C1017.40 hPa66.00 %7.30 °C 
18:15:0013.60 °C1017.50 hPa64.00 %6.90 °C 
18:00:0013.80 °C1017.50 hPa63.00 %6.90 °C 
17:45:0013.90 °C1017.20 hPa62.00 %6.70 °C 
17:30:0014.10 °C1017.30 hPa61.00 %23.40 km/hWSW14.10 °C6.70 °C 
17:15:0014.40 °C1017.40 hPa59.00 %5.04 km/hWNW14.40 °C6.50 °C 
17:00:0014.90 °C1017.20 hPa58.00 %6.70 °C 
16:45:0015.50 °C1017.10 hPa56.00 %2.52 km/hWSW15.50 °C6.80 °C 
16:30:0016.00 °C1017.10 hPa58.00 %30.96 km/hNNW16.00 °C7.70 °C 
16:15:0015.90 °C1017.00 hPa59.00 %9.00 km/hWNW15.90 °C7.90 °C 
16:00:0015.60 °C1017.00 hPa60.00 %7.90 °C 
15:45:0015.50 °C1016.80 hPa62.00 %15.48 km/hNNW15.50 °C8.30 °C 
15:30:0015.80 °C1016.70 hPa60.00 %8.10 °C 
15:15:0016.30 °C1016.90 hPa59.00 %10.44 km/hNW16.30 °C8.30 °C 
15:00:0015.60 °C1016.80 hPa61.00 %9.00 km/hNNW15.60 °C8.10 °C 
14:45:0015.90 °C1016.60 hPa61.00 %9.00 km/hNW15.90 °C8.40 °C 
14:30:0015.70 °C1016.60 hPa61.00 %33.84 km/hWNW15.50 °C8.20 °C 
14:15:0015.40 °C1016.50 hPa63.00 %8.40 °C 
14:00:0015.20 °C1016.70 hPa63.00 %8.20 °C 
13:45:0014.90 °C1016.70 hPa63.00 %11.52 km/hNNW14.90 °C7.90 °C 
13:30:0015.50 °C1016.50 hPa62.00 %21.96 km/hWNW15.80 °C8.30 °C 
13:15:0015.30 °C1016.60 hPa63.00 %25.92 km/hNW15.40 °C8.30 °C 
13:00:0015.10 °C1016.50 hPa66.00 %3.96 km/hWNW15.10 °C8.80 °C 
12:45:0015.00 °C1016.30 hPa64.00 %32.40 km/hSW14.70 °C8.30 °C 
12:30:0015.30 °C1016.20 hPa66.00 %9.00 °C 
12:15:0013.90 °C1016.10 hPa68.00 %25.92 km/hWNW13.70 °C8.10 °C 
12:00:0013.60 °C1015.90 hPa68.00 %27.36 km/hWNW13.30 °C7.80 °C 
11:45:0013.80 °C1015.90 hPa67.00 %34.92 km/hNW13.20 °C7.80 °C 
11:30:0013.80 °C1015.80 hPa67.00 %7.80 °C 
11:15:0013.10 °C1015.70 hPa72.00 %18.00 km/hWNW13.30 °C8.20 °C 
11:00:0013.20 °C1015.70 hPa70.00 %3.96 km/hWNW13.20 °C7.90 °C 
10:45:0012.90 °C1015.40 hPa73.00 %8.20 °C 
10:30:0011.90 °C1015.40 hPa74.00 %28.44 km/hW11.30 °C7.40 °C 
10:15:0012.10 °C1015.30 hPa74.00 %14.40 km/hNW12.10 °C7.60 °C 
10:00:0011.40 °C1015.20 hPa76.00 %7.30 °C 
09:45:0011.50 °C1015.10 hPa77.00 %7.92 km/hWNW11.50 °C7.60 °C 
09:30:0011.50 °C1015.00 hPa76.00 %7.40 °C 
09:15:0010.70 °C1014.80 hPa79.00 %7.20 °C 
09:00:0010.60 °C1014.70 hPa80.00 %7.30 °C 
08:45:0010.00 °C1014.60 hPa81.00 %7.92 km/hW10.00 °C6.90 °C 
08:30:0010.10 °C1014.30 hPa81.00 %50.40 km/hW8.20 °C7.00 °C 
08:15:0010.10 °C1014.20 hPa82.00 %3.96 km/hW10.10 °C7.20 °C 
08:00:009.90 °C1014.10 hPa82.00 %9.00 km/hN9.90 °C7.00 °C 
07:45:009.80 °C1014.10 hPa83.00 %11.52 km/hW9.80 °C7.10 °C 
07:30:009.60 °C1014.00 hPa84.00 %25.92 km/hW8.70 °C7.00 °C 
07:15:009.30 °C1013.90 hPa85.00 %6.90 °C 
07:00:009.20 °C1013.80 hPa85.00 %6.48 km/hW9.20 °C6.80 °C 
06:45:009.00 °C1013.60 hPa86.00 %6.80 °C 
06:30:008.90 °C1013.40 hPa86.00 %25.92 km/hWNW7.90 °C6.70 °C 
06:15:009.00 °C1013.30 hPa87.00 %7.00 °C 
06:00:008.90 °C1013.10 hPa87.00 %6.90 °C 
05:45:008.90 °C1012.80 hPa87.00 %9.00 km/hWSW8.90 °C6.90 °C 
05:30:008.90 °C1012.60 hPa87.00 %6.90 °C 
05:15:008.90 °C1012.40 hPa87.00 %6.90 °C 
05:00:009.10 °C1012.30 hPa88.00 %18.00 km/hW8.70 °C7.20 °C 
04:45:009.10 °C1012.10 hPa88.00 %7.20 °C 
04:30:009.20 °C1012.00 hPa88.00 %7.30 °C 
04:15:009.20 °C1011.70 hPa88.00 %3.96 km/hWNW9.20 °C7.30 °C 
04:00:009.30 °C1011.70 hPa88.00 %14.40 km/hNW9.30 °C7.40 °C 
03:45:009.60 °C1011.70 hPa88.00 %5.04 km/hNNW9.60 °C7.70 °C 
03:30:009.80 °C1011.60 hPa87.00 %6.48 km/hNNW9.80 °C7.70 °C 
03:15:009.90 °C1011.90 hPa87.00 %7.80 °C 
03:00:0010.10 °C1011.80 hPa87.00 %46.80 km/hNW8.30 °C8.00 °C 
02:45:0010.30 °C1011.60 hPa87.00 %5.04 km/hN10.30 °C8.20 °C 
02:30:0010.30 °C1011.50 hPa87.00 %7.92 km/hWNW10.30 °C8.20 °C 
02:15:0010.40 °C1011.20 hPa86.00 %11.52 km/hW10.40 °C8.20 °C 
02:00:0010.40 °C1011.20 hPa86.00 %8.20 °C 
01:45:0010.60 °C1010.80 hPa87.00 %29.88 km/hWNW9.70 °C8.50 °C 
01:30:0010.70 °C1010.70 hPa87.00 %19.44 km/hNW10.40 °C8.60 °C 
01:15:0010.70 °C1010.60 hPa87.00 %9.00 km/hWNW10.70 °C8.60 °C 
01:00:0010.80 °C1010.50 hPa86.00 %29.88 km/hNW9.90 °C8.60 °C 
00:45:0010.90 °C1010.70 hPa86.00 %21.96 km/hW10.50 °C8.70 °C 
00:30:0011.20 °C1010.60 hPa86.00 %11.52 km/hWNW11.20 °C8.90 °C 
00:15:0011.50 °C1010.50 hPa85.00 %25.92 km/hSSO10.90 °C9.10 °C 
00:00:0011.60 °C1010.10 hPa84.00 %9.00 °C 

Permanenter Link zu dieser Seite: Wetter im Erzgebirge am 20.05.2017
Performance-Info: Die Erstellung der Seite / Statistik(en) / Tabelle(n) erforderte 5 Datenbankserver-Abfrage(n) und dauerte 126 Millisekunden. (Dieser Messwert ist von der Gesamt-Auslastung des Servers abhängig.)
Erzgebirge - Wetter | Erzgebirge - Wetter (Mobilgeräte) | Komplette Klimadatenbank